Wassenaar, Netherlands
Current Conditions -  °F | °C
As of 10:25 PM on Tuesday 21 Oct 2014 (Local Time) from EHRD Reporting Station
Rain Showers Rain Showers  
Wind Chill: 40°   Ceiling: 3800
Heat Index: 48°   Visibility: 6mi
Dew Point: 41°   Wind: 24mph
Humidity: 76%   Direction: 310°NW
Pressure: 29.74"   Gusts: 40mph
Location:  52.15°N, 4.37°E
Report Text: EHRD 212025Z AUTO 31021G35KT 260V360 9999 SHRA SCT016CB BKN038BKN044 09/05 Q1007 TEMPO 30024G38KT 4000 SHRA
Loading
Personal Weather Stations






























Interactive Weather Map
Tropical Storm Tracking
New forecast layout! Learn more

10-Day Weather Forecast

Advertisements
Track Severe Weather on mobile